Time,TemperatureF,DewpointF,PressureIn,WindDirection,WindDirectionDegrees,WindSpeedMPH,WindSpeedGustMPH,Humidity,HourlyPrecipIn,Conditions,Clouds,dailyrainin,SoftwareType,DateUTC
2013-05-17 00:03:00,62.0,59.0,-100.00,SSE,165,3.0,6.0,88,-99.99,,,-99.99,,2013-05-17 05:03:00,
2013-05-17 00:14:00,62.0,59.0,-100.00,SSW,195,4.0,6.0,88,-99.99,,,-99.99,,2013-05-17 05:14:00,
2013-05-17 00:22:00,62.0,59.0,-100.00,SSW,195,4.0,6.0,88,-99.99,,,-99.99,,2013-05-17 05:22:00,
2013-05-17 00:32:00,62.0,59.0,-100.00,WSW,250,2.0,5.0,88,-99.99,,,-99.99,,2013-05-17 05:32:00,
2013-05-17 00:42:00,62.0,59.0,-100.00,SSW,210,3.0,7.0,88,-99.99,,,-99.99,,2013-05-17 05:42:00,
2013-05-17 00:52:00,62.0,59.0,-100.00,SSW,210,3.0,7.0,88,-99.99,,,-99.99,,2013-05-17 05:52:00,
2013-05-17 01:02:00,62.0,59.0,-100.00,South,170,2.0,4.0,88,-99.99,,,-99.99,,2013-05-17 06:02:00,
2013-05-17 01:11:00,62.0,59.0,-100.00,SW,220,1.0,5.0,88,-99.99,,,-99.99,,2013-05-17 06:11:00,
2013-05-17 01:21:00,62.0,59.0,-100.00,SW,220,1.0,5.0,88,-99.99,,,-99.99,,2013-05-17 06:21:00,
2013-05-17 01:32:00,62.0,59.0,-100.00,WSW,255,2.0,5.0,89,-99.99,,,-99.99,,2013-05-17 06:32:00,
2013-05-17 01:42:00,62.0,59.0,-100.00,WSW,250,2.0,4.0,89,-99.99,,,-99.99,,2013-05-17 06:42:00,
2013-05-17 01:52:00,62.0,59.0,-100.00,WSW,250,2.0,4.0,89,-99.99,,,-99.99,,2013-05-17 06:52:00,
2013-05-17 02:02:00,62.0,59.0,-100.00,WSW,255,1.0,4.0,90,-99.99,,,-99.99,,2013-05-17 07:02:00,
2013-05-17 02:11:00,62.0,59.0,-100.00,West,265,1.0,2.0,90,-99.99,,,-99.99,,2013-05-17 07:11:00,
2013-05-17 02:21:00,62.0,59.0,-100.00,West,265,1.0,2.0,90,-99.99,,,-99.99,,2013-05-17 07:21:00,
2013-05-17 02:32:00,62.0,59.0,-100.00,WNW,295,1.0,2.0,91,-99.99,,,-99.99,,2013-05-17 07:32:00,
2013-05-17 02:43:00,62.0,59.0,-100.00,West,275,0.0,2.0,91,-99.99,,,-99.99,,2013-05-17 07:43:00,
2013-05-17 02:53:00,62.0,59.0,-100.00,West,275,0.0,2.0,91,-99.99,,,-99.99,,2013-05-17 07:53:00,
2013-05-17 03:02:00,61.0,59.0,-100.00,SSW,200,0.0,2.0,92,-99.99,,,-99.99,,2013-05-17 08:02:00,
2013-05-17 03:12:00,61.0,59.0,-100.00,South,175,0.0,4.0,94,-99.99,,,-99.99,,2013-05-17 08:12:00,
2013-05-17 03:23:00,61.0,59.0,-100.00,South,175,0.0,4.0,94,-99.99,,,-99.99,,2013-05-17 08:23:00,
2013-05-17 03:33:00,60.0,58.0,-100.00,WNW,295,1.0,2.0,96,-99.99,,,-99.99,,2013-05-17 08:33:00,
2013-05-17 03:42:00,60.0,59.0,-100.00,NW,315,1.0,2.0,97,-99.99,,,-99.99,,2013-05-17 08:42:00,
2013-05-17 03:51:00,60.0,59.0,-100.00,NW,315,1.0,2.0,97,-99.99,,,-99.99,,2013-05-17 08:51:00,
2013-05-17 04:02:00,60.0,59.0,-100.00,WSW,255,1.0,4.0,96,-99.99,,,-99.99,,2013-05-17 09:02:00,
2013-05-17 04:12:00,60.0,59.0,-100.00,West,270,1.0,3.0,96,-99.99,,,-99.99,,2013-05-17 09:12:00,
2013-05-17 04:22:00,60.0,59.0,-100.00,West,270,1.0,3.0,96,-99.99,,,-99.99,,2013-05-17 09:22:00,
2013-05-17 04:33:00,59.0,58.0,-100.00,West,270,0.0,2.0,97,-99.99,,,-99.99,,2013-05-17 09:33:00,
2013-05-17 04:42:00,58.0,58.0,-100.00,NW,315,0.0,1.0,98,-99.99,,,-99.99,,2013-05-17 09:42:00,
2013-05-17 04:53:00,58.0,58.0,-100.00,NW,315,0.0,1.0,98,-99.99,,,-99.99,,2013-05-17 09:53:00,
2013-05-17 05:03:00,59.0,59.0,-100.00,West,265,1.0,3.0,99,-99.99,,,-99.99,,2013-05-17 10:03:00,
2013-05-17 05:12:00,59.0,58.0,-100.00,West,275,1.0,2.0,98,-99.99,,,-99.99,,2013-05-17 10:12:00,
2013-05-17 05:23:00,59.0,58.0,-100.00,West,275,1.0,2.0,98,-99.99,,,-99.99,,2013-05-17 10:23:00,
2013-05-17 05:33:00,59.0,58.0,-100.00,NW,320,2.0,5.0,98,-99.99,,,-99.99,,2013-05-17 10:33:00,
2013-05-17 05:42:00,59.0,59.0,-100.00,NW,320,0.0,2.0,99,-99.99,,,-99.99,,2013-05-17 10:42:00,
2013-05-17 05:53:00,59.0,59.0,-100.00,NW,320,0.0,2.0,99,-99.99,,,-99.99,,2013-05-17 10:53:00,
2013-05-17 06:02:00,60.0,59.0,-100.00,South,170,1.0,3.0,99,-99.99,,,-99.99,,2013-05-17 11:02:00,
2013-05-17 06:12:00,60.0,60.0,-100.00,WSW,255,2.0,4.0,99,-99.99,,,-99.99,,2013-05-17 11:12:00,
2013-05-17 06:23:00,60.0,60.0,-100.00,WSW,255,2.0,4.0,99,-99.99,,,-99.99,,2013-05-17 11:23:00,
2013-05-17 06:34:00,60.0,59.0,-100.00,WNW,295,1.0,3.0,98,-99.99,,,-99.99,,2013-05-17 11:34:00,
2013-05-17 06:42:00,60.0,60.0,-100.00,NW,315,0.0,2.0,99,-99.99,,,-99.99,,2013-05-17 11:42:00,
2013-05-17 06:53:00,60.0,60.0,-100.00,NW,315,0.0,2.0,99,-99.99,,,-99.99,,2013-05-17 11:53:00,
2013-05-17 07:03:00,60.0,60.0,-100.00,WSW,240,2.0,4.0,98,-99.99,,,-99.99,,2013-05-17 12:03:00,
2013-05-17 07:12:00,61.0,60.0,-100.00,West,260,1.0,3.0,97,-99.99,,,-99.99,,2013-05-17 12:12:00,
2013-05-17 07:23:00,61.0,60.0,-100.00,West,260,1.0,3.0,97,-99.99,,,-99.99,,2013-05-17 12:23:00,
2013-05-17 07:32:00,61.0,60.0,-100.00,West,260,0.0,4.0,97,-99.99,,,-99.99,,2013-05-17 12:32:00,
2013-05-17 07:43:00,61.0,60.0,-100.00,NW,320,1.0,2.0,97,-99.99,,,-99.99,,2013-05-17 12:43:00,
2013-05-17 07:53:00,61.0,60.0,-100.00,NW,320,1.0,2.0,97,-99.99,,,-99.99,,2013-05-17 12:53:00,
2013-05-17 08:03:00,62.0,61.0,-100.00,SSW,200,1.0,5.0,96,-99.99,,,-99.99,,2013-05-17 13:03:00,
2013-05-17 08:12:00,62.0,61.0,-100.00,West,275,2.0,5.0,96,-99.99,,,-99.99,,2013-05-17 13:12:00,
2013-05-17 08:23:00,62.0,61.0,-100.00,West,275,2.0,5.0,96,-99.99,,,-99.99,,2013-05-17 13:23:00,
2013-05-17 08:33:00,64.0,61.0,-100.00,WNW,285,3.0,6.0,91,-99.99,,,-99.99,,2013-05-17 13:33:00,
2013-05-17 08:42:00,65.0,61.0,-100.00,West,275,1.0,4.0,87,-99.99,,,-99.99,,2013-05-17 13:42:00,
2013-05-17 08:52:00,65.0,61.0,-100.00,West,275,1.0,4.0,87,-99.99,,,-99.99,,2013-05-17 13:52:00,
2013-05-17 09:02:00,67.0,61.0,-100.00,WNW,290,6.0,9.0,83,-99.99,,,-99.99,,2013-05-17 14:02:00,
2013-05-17 09:13:00,66.0,62.0,-100.00,West,275,4.0,7.0,85,-99.99,,,-99.99,,2013-05-17 14:13:00,
2013-05-17 09:22:00,66.0,62.0,-100.00,West,275,4.0,7.0,85,-99.99,,,-99.99,,2013-05-17 14:22:00,
2013-05-17 09:34:00,68.0,62.0,-100.00,WNW,290,3.0,5.0,82,-99.99,,,-99.99,,2013-05-17 14:34:00,
2013-05-17 09:43:00,67.0,62.0,-100.00,WNW,300,4.0,7.0,83,-99.99,,,-99.99,,2013-05-17 14:43:00,
2013-05-17 09:53:00,67.0,62.0,-100.00,WNW,300,4.0,7.0,83,-99.99,,,-99.99,,2013-05-17 14:53:00,
2013-05-17 10:03:00,69.0,62.0,-100.00,WNW,295,3.0,5.0,79,-99.99,,,-99.99,,2013-05-17 15:03:00,
2013-05-17 10:14:00,69.0,61.0,-100.00,NW,305,2.0,4.0,78,-99.99,,,-99.99,,2013-05-17 15:14:00,
2013-05-17 10:25:00,69.0,61.0,-100.00,NW,305,2.0,4.0,78,-99.99,,,-99.99,,2013-05-17 15:25:00,
2013-05-17 10:37:00,69.0,62.0,-100.00,WNW,290,2.0,5.0,77,-99.99,,,-99.99,,2013-05-17 15:37:00,
2013-05-17 10:47:00,70.0,62.0,-100.00,NW,320,2.0,5.0,76,-99.99,,,-99.99,,2013-05-17 15:47:00,
2013-05-17 10:56:00,70.0,62.0,-100.00,NW,320,2.0,5.0,76,-99.99,,,-99.99,,2013-05-17 15:56:00,
2013-05-17 11:07:00,70.0,62.0,-100.00,NW,320,1.0,6.0,75,-99.99,,,-99.99,,2013-05-17 16:07:00,
2013-05-17 11:13:00,72.0,62.0,-100.00,NW,315,3.0,5.0,72,-99.99,,,-99.99,,2013-05-17 16:13:00,
2013-05-17 11:26:00,72.0,62.0,-100.00,NW,315,3.0,5.0,72,-99.99,,,-99.99,,2013-05-17 16:26:00,
2013-05-17 11:30:00,72.0,62.0,-100.00,South,185,3.0,5.0,69,-99.99,,,-99.99,,2013-05-17 16:30:00,
2013-05-17 11:37:00,70.0,62.0,-100.00,NW,310,2.0,4.0,76,-99.99,,,-99.99,,2013-05-17 16:37:00,
2013-05-17 11:49:00,71.0,63.0,-100.00,NW,310,3.0,5.0,77,-99.99,,,-99.99,,2013-05-17 16:49:00,
2013-05-17 11:56:00,71.0,63.0,-100.00,NW,310,3.0,5.0,77,-99.99,,,-99.99,,2013-05-17 16:56:00,
2013-05-17 12:00:00,73.0,-99.9,-100.00,West,265,4.0,7.0,70,-99.99,,,-99.99,,2013-05-17 17:00:00,
2013-05-17 12:08:00,72.0,62.0,-100.00,ESE,115,1.0,3.0,72,-99.99,,,-99.99,,2013-05-17 17:08:00,
2013-05-17 12:19:00,72.0,62.0,-100.00,South,185,3.0,5.0,69,-99.99,,,-99.99,,2013-05-17 17:19:00,
2013-05-17 12:30:00,73.0,63.0,-100.00,West,260,5.0,10.0,71,-99.99,,,-99.99,,2013-05-17 17:30:00,
2013-05-17 12:49:00,73.0,62.0,-100.00,West,265,4.0,7.0,70,-99.99,,,-99.99,,2013-05-17 17:49:00,
2013-05-17 13:00:00,75.0,62.0,-100.00,WSW,240,4.0,11.0,65,-99.99,,,-99.99,,2013-05-17 18:00:00,
2013-05-17 13:09:00,72.0,63.0,-100.00,West,265,6.0,10.0,72,-99.99,,,-99.99,,2013-05-17 18:09:00,
2013-05-17 13:20:00,73.0,63.0,-100.00,West,260,5.0,10.0,71,-99.99,,,-99.99,,2013-05-17 18:20:00,
2013-05-17 13:30:00,76.0,63.0,-100.00,West,265,4.0,10.0,64,-99.99,,,-99.99,,2013-05-17 18:30:00,
2013-05-17 13:40:00,74.0,-99.9,-100.00,West,270,7.0,11.0,68,-99.99,,,-99.99,,2013-05-17 18:40:00,
2013-05-17 13:50:00,-999.0,-99.9,-100.00,WSW,240,4.0,11.0,65,-99.99,,,-99.99,,2013-05-17 18:50:00,
2013-05-17 14:00:00,77.0,-99.9,-100.00,West,275,5.0,9.0,60,-99.99,,,-99.99,,2013-05-17 19:00:00,
2013-05-17 14:20:00,76.0,63.0,-100.00,West,265,4.0,10.0,64,-99.99,,,-99.99,,2013-05-17 19:20:00,
2013-05-17 14:40:00,76.0,62.0,-100.00,West,275,4.0,10.0,62,-99.99,,,-99.99,,2013-05-17 19:40:00,
2013-05-17 14:50:00,77.0,62.0,-100.00,West,275,5.0,9.0,60,-99.99,,,-99.99,,2013-05-17 19:50:00,
2013-05-17 15:09:00,76.0,62.0,-100.00,SW,230,4.0,10.0,63,-99.99,,,-99.99,,2013-05-17 20:09:00,
2013-05-17 15:40:00,77.0,63.0,-100.00,WNW,285,7.0,10.0,62,-99.99,,,-99.99,,2013-05-17 20:40:00,
2013-05-17 15:50:00,77.0,63.0,-100.00,West,270,5.0,10.0,62,-99.99,,,-99.99,,2013-05-17 20:50:00,
2013-05-17 15:58:00,77.0,63.0,-100.00,West,270,5.0,10.0,62,-99.99,,,-99.99,,2013-05-17 20:58:00,
2013-05-17 16:07:00,79.0,63.0,-100.00,West,280,4.0,9.0,58,-99.99,,,-99.99,,2013-05-17 21:07:00,
2013-05-17 16:17:00,78.0,62.0,-100.00,West,265,4.0,10.0,59,-99.99,,,-99.99,,2013-05-17 21:17:00,
2013-05-17 16:26:00,78.0,62.0,-100.00,West,265,4.0,10.0,59,-99.99,,,-99.99,,2013-05-17 21:26:00,
2013-05-17 16:39:00,77.0,64.0,-100.00,West,275,5.0,9.0,64,-99.99,,,-99.99,,2013-05-17 21:39:00,
2013-05-17 16:49:00,77.0,64.0,-100.00,West,275,6.0,11.0,63,-99.99,,,-99.99,,2013-05-17 21:49:00,
2013-05-17 16:57:00,77.0,64.0,-100.00,West,275,6.0,11.0,63,-99.99,,,-99.99,,2013-05-17 21:57:00,
2013-05-17 17:07:00,77.0,64.0,-100.00,West,265,4.0,8.0,63,-99.99,,,-99.99,,2013-05-17 22:07:00,
2013-05-17 17:17:00,76.0,63.0,-100.00,West,265,4.0,7.0,63,-99.99,,,-99.99,,2013-05-17 22:17:00,
2013-05-17 17:28:00,76.0,63.0,-100.00,West,265,4.0,7.0,63,-99.99,,,-99.99,,2013-05-17 22:28:00,
2013-05-17 17:38:00,77.0,64.0,-100.00,West,270,3.0,6.0,64,-99.99,,,-99.99,,2013-05-17 22:38:00,
2013-05-17 17:47:00,77.0,63.0,-100.00,WNW,295,3.0,5.0,63,-99.99,,,-99.99,,2013-05-17 22:47:00,
2013-05-17 17:54:00,77.0,63.0,-100.00,WNW,295,3.0,5.0,63,-99.99,,,-99.99,,2013-05-17 22:54:00,
2013-05-17 18:04:00,77.0,63.0,-100.00,WSW,250,3.0,5.0,63,-99.99,,,-99.99,,2013-05-17 23:04:00,
2013-05-17 18:13:00,77.0,64.0,-100.00,WSW,240,3.0,7.0,63,-99.99,,,-99.99,,2013-05-17 23:13:00,
2013-05-17 18:23:00,77.0,64.0,-100.00,WSW,240,3.0,7.0,63,-99.99,,,-99.99,,2013-05-17 23:23:00,
2013-05-17 18:37:00,78.0,64.0,-100.00,WNW,290,5.0,7.0,61,-99.99,,,-99.99,,2013-05-17 23:37:00,
2013-05-17 18:47:00,78.0,63.0,-100.00,West,280,5.0,9.0,61,-99.99,,,-99.99,,2013-05-17 23:47:00,
2013-05-17 18:54:00,78.0,63.0,-100.00,West,280,5.0,9.0,61,-99.99,,,-99.99,,2013-05-17 23:54:00,
2013-05-17 19:02:00,77.0,63.0,-100.00,WNW,285,1.0,6.0,63,-99.99,,,-99.99,,2013-05-18 00:02:00,
2013-05-17 19:14:00,78.0,64.0,-100.00,WNW,285,2.0,6.0,63,-99.99,,,-99.99,,2013-05-18 00:14:00,
2013-05-17 19:22:00,78.0,64.0,-100.00,WNW,285,2.0,6.0,63,-99.99,,,-99.99,,2013-05-18 00:22:00,
2013-05-17 19:33:00,77.0,63.0,-100.00,WNW,285,4.0,7.0,63,-99.99,,,-99.99,,2013-05-18 00:33:00,
2013-05-17 19:44:00,77.0,64.0,-100.00,WNW,290,2.0,5.0,64,-99.99,,,-99.99,,2013-05-18 00:44:00,
2013-05-17 19:54:00,77.0,64.0,-100.00,WNW,290,2.0,5.0,64,-99.99,,,-99.99,,2013-05-18 00:54:00,
2013-05-17 20:03:00,76.0,64.0,-100.00,WNW,295,2.0,5.0,65,-99.99,,,-99.99,,2013-05-18 01:03:00,
2013-05-17 20:13:00,76.0,64.0,-100.00,WNW,290,2.0,4.0,66,-99.99,,,-99.99,,2013-05-18 01:13:00,
2013-05-17 20:24:00,76.0,64.0,-100.00,WNW,290,2.0,4.0,66,-99.99,,,-99.99,,2013-05-18 01:24:00,
2013-05-17 20:32:00,75.0,64.0,-100.00,WNW,285,1.0,3.0,70,-99.99,,,-99.99,,2013-05-18 01:32:00,
2013-05-17 20:43:00,74.0,65.0,-100.00,WNW,295,1.0,4.0,73,-99.99,,,-99.99,,2013-05-18 01:43:00,
2013-05-17 20:52:00,74.0,65.0,-100.00,WNW,295,1.0,4.0,73,-99.99,,,-99.99,,2013-05-18 01:52:00,
2013-05-17 21:02:00,71.0,65.0,-100.00,West,280,1.0,5.0,80,-99.99,,,-99.99,,2013-05-18 02:02:00,
2013-05-17 21:12:00,70.0,64.0,-100.00,SW,225,2.0,5.0,83,-99.99,,,-99.99,,2013-05-18 02:12:00,
2013-05-17 21:22:00,70.0,64.0,-100.00,SW,225,2.0,5.0,83,-99.99,,,-99.99,,2013-05-18 02:22:00,
2013-05-17 21:31:00,68.0,64.0,-100.00,WSW,250,0.0,4.0,87,-99.99,,,-99.99,,2013-05-18 02:31:00,
2013-05-17 21:42:00,67.0,64.0,-100.00,North,0,0.0,7.0,89,-99.99,,,-99.99,,2013-05-18 02:42:00,
2013-05-17 21:53:00,67.0,64.0,-100.00,North,0,0.0,7.0,89,-99.99,,,-99.99,,2013-05-18 02:53:00,
2013-05-17 22:03:00,67.0,64.0,-100.00,WSW,255,1.0,4.0,89,-99.99,,,-99.99,,2013-05-18 03:03:00,
2013-05-17 22:12:00,67.0,64.0,-100.00,West,260,1.0,4.0,90,-99.99,,,-99.99,,2013-05-18 03:12:00,
2013-05-17 22:22:00,67.0,64.0,-100.00,West,260,1.0,4.0,90,-99.99,,,-99.99,,2013-05-18 03:22:00,
2013-05-17 22:33:00,66.0,64.0,-100.00,WNW,300,1.0,3.0,92,-99.99,,,-99.99,,2013-05-18 03:33:00,
2013-05-17 22:43:00,65.0,64.0,-100.00,South,175,1.0,2.0,94,-99.99,,,-99.99,,2013-05-18 03:43:00,
2013-05-17 22:53:00,65.0,64.0,-100.00,South,175,1.0,2.0,94,-99.99,,,-99.99,,2013-05-18 03:53:00,
2013-05-17 23:03:00,64.0,63.0,-100.00,ESE,105,1.0,2.0,96,-99.99,,,-99.99,,2013-05-18 04:03:00,
2013-05-17 23:12:00,64.0,63.0,-100.00,SSE,165,1.0,4.0,96,-99.99,,,-99.99,,2013-05-18 04:12:00,
2013-05-17 23:23:00,64.0,63.0,-100.00,SSE,165,1.0,4.0,96,-99.99,,,-99.99,,2013-05-18 04:23:00,
2013-05-17 23:33:00,63.0,63.0,-100.00,WNW,295,1.0,2.0,97,-99.99,,,-99.99,,2013-05-18 04:33:00,
2013-05-17 23:42:00,63.0,62.0,-100.00,ESE,110,0.0,3.0,95,-99.99,,,-99.99,,2013-05-18 04:42:00,
2013-05-17 23:52:00,63.0,62.0,-100.00,ESE,110,0.0,3.0,95,-99.99,,,-99.99,,2013-05-18 04:52:00,